sensor_id;sensor_type;location;lat;lon;timestamp;P1;durP1;ratioP1;P2;durP2;ratioP2
10637;SDS011;47007;49.252;8.904;2022-10-30T00:00:46;8.10;;;5.70;;
10637;SDS011;47007;49.252;8.904;2022-10-30T00:03:14;8.90;;;7.18;;
10637;SDS011;47007;49.252;8.904;2022-10-30T00:05:43;5.95;;;5.07;;
10637;SDS011;47007;49.252;8.904;2022-10-30T00:08:11;7.88;;;5.82;;
10637;SDS011;47007;49.252;8.904;2022-10-30T00:10:39;8.30;;;4.93;;
10637;SDS011;47007;49.252;8.904;2022-10-30T00:13:07;5.65;;;4.65;;
10637;SDS011;47007;49.252;8.904;2022-10-30T00:15:34;7.70;;;4.93;;
10637;SDS011;47007;49.252;8.904;2022-10-30T00:18:01;5.32;;;4.60;;
10637;SDS011;47007;49.252;8.904;2022-10-30T00:20:28;5.95;;;4.88;;
10637;SDS011;47007;49.252;8.904;2022-10-30T00:22:55;7.18;;;4.70;;
10637;SDS011;47007;49.252;8.904;2022-10-30T00:25:22;7.82;;;4.57;;
10637;SDS011;47007;49.252;8.904;2022-10-30T00:27:49;6.22;;;4.40;;
10637;SDS011;47007;49.252;8.904;2022-10-30T00:30:16;5.70;;;4.38;;
10637;SDS011;47007;49.252;8.904;2022-10-30T00:32:44;6.03;;;4.72;;
10637;SDS011;47007;49.252;8.904;2022-10-30T00:35:10;6.60;;;4.68;;
10637;SDS011;47007;49.252;8.904;2022-10-30T00:37:37;7.38;;;5.00;;
10637;SDS011;47007;49.252;8.904;2022-10-30T00:40:05;6.43;;;5.07;;
10637;SDS011;47007;49.252;8.904;2022-10-30T00:42:32;6.38;;;4.85;;
10637;SDS011;47007;49.252;8.904;2022-10-30T00:45:02;4.85;;;4.22;;
10637;SDS011;47007;49.252;8.904;2022-10-30T00:47:35;5.72;;;4.50;;
10637;SDS011;47007;49.252;8.904;2022-10-30T00:50:39;9.27;;;4.72;;
10637;SDS011;47007;49.252;8.904;2022-10-30T00:53:04;7.50;;;4.88;;
10637;SDS011;47007;49.252;8.904;2022-10-30T00:55:38;7.80;;;4.50;;
10637;SDS011;47007;49.252;8.904;2022-10-30T00:58:10;8.00;;;6.22;;
10637;SDS011;47007;49.252;8.904;2022-10-30T01:00:42;7.47;;;4.95;;
10637;SDS011;47007;49.252;8.904;2022-10-30T01:03:17;5.88;;;4.50;;
10637;SDS011;47007;49.252;8.904;2022-10-30T01:05:48;8.65;;;4.53;;
10637;SDS011;47007;49.252;8.904;2022-10-30T01:08:20;6.68;;;4.40;;
10637;SDS011;47007;49.252;8.904;2022-10-30T01:10:47;5.65;;;4.43;;
10637;SDS011;47007;49.252;8.904;2022-10-30T01:13:15;9.05;;;4.80;;
10637;SDS011;47007;49.252;8.904;2022-10-30T01:15:51;8.40;;;5.10;;
10637;SDS011;47007;49.252;8.904;2022-10-30T01:24:01;42.80;;;28.95;;
10637;SDS011;47007;49.252;8.904;2022-10-30T01:29:45;19.00;;;14.45;;
10637;SDS011;47007;49.252;8.904;2022-10-30T01:35:22;22.23;;;14.95;;
10637;SDS011;47007;49.252;8.904;2022-10-30T01:40:47;13.18;;;9.95;;
10637;SDS011;47007;49.252;8.904;2022-10-30T01:43:14;12.68;;;10.32;;
10637;SDS011;47007;49.252;8.904;2022-10-30T01:51:28;12.63;;;8.18;;
10637;SDS011;47007;49.252;8.904;2022-10-30T01:54:12;8.27;;;7.22;;
10637;SDS011;47007;49.252;8.904;2022-10-30T01:56:53;11.32;;;6.90;;
10637;SDS011;47007;49.252;8.904;2022-10-30T01:59:34;8.43;;;6.32;;
10637;SDS011;47007;49.252;8.904;2022-10-30T02:02:06;9.55;;;6.65;;
10637;SDS011;47007;49.252;8.904;2022-10-30T02:04:34;8.65;;;6.15;;
10637;SDS011;47007;49.252;8.904;2022-10-30T02:07:01;8.77;;;7.22;;
10637;SDS011;47007;49.252;8.904;2022-10-30T02:09:34;8.48;;;7.57;;
10637;SDS011;47007;49.252;8.904;2022-10-30T02:12:00;9.43;;;6.13;;
10637;SDS011;47007;49.252;8.904;2022-10-30T02:14:31;7.03;;;6.32;;
10637;SDS011;47007;49.252;8.904;2022-10-30T02:17:04;9.75;;;6.50;;
10637;SDS011;47007;49.252;8.904;2022-10-30T02:19:32;11.65;;;6.15;;
10637;SDS011;47007;49.252;8.904;2022-10-30T02:22:01;8.80;;;5.57;;
10637;SDS011;47007;49.252;8.904;2022-10-30T02:24:28;7.50;;;5.53;;
10637;SDS011;47007;49.252;8.904;2022-10-30T02:26:57;8.45;;;5.40;;
10637;SDS011;47007;49.252;8.904;2022-10-30T02:29:24;7.22;;;5.25;;
10637;SDS011;47007;49.252;8.904;2022-10-30T02:31:51;7.88;;;5.45;;
10637;SDS011;47007;49.252;8.904;2022-10-30T02:34:17;7.50;;;5.10;;
10637;SDS011;47007;49.252;8.904;2022-10-30T02:36:44;8.05;;;5.32;;
10637;SDS011;47007;49.252;8.904;2022-10-30T02:39:11;7.25;;;5.80;;
10637;SDS011;47007;49.252;8.904;2022-10-30T02:41:38;6.90;;;4.97;;
10637;SDS011;47007;49.252;8.904;2022-10-30T02:44:04;6.97;;;4.28;;
10637;SDS011;47007;49.252;8.904;2022-10-30T02:46:32;7.20;;;5.03;;
10637;SDS011;47007;49.252;8.904;2022-10-30T02:48:59;7.85;;;5.10;;
10637;SDS011;47007;49.252;8.904;2022-10-30T02:51:26;6.10;;;4.97;;
10637;SDS011;47007;49.252;8.904;2022-10-30T02:53:53;7.57;;;4.90;;
10637;SDS011;47007;49.252;8.904;2022-10-30T02:56:19;6.10;;;4.25;;
10637;SDS011;47007;49.252;8.904;2022-10-30T02:58:46;5.07;;;4.57;;
10637;SDS011;47007;49.252;8.904;2022-10-30T03:01:14;5.38;;;4.43;;
10637;SDS011;47007;49.252;8.904;2022-10-30T03:03:43;4.95;;;4.45;;
10637;SDS011;47007;49.252;8.904;2022-10-30T03:06:12;5.75;;;4.20;;
10637;SDS011;47007;49.252;8.904;2022-10-30T03:08:41;6.25;;;4.45;;
10637;SDS011;47007;49.252;8.904;2022-10-30T03:11:09;6.30;;;4.38;;
10637;SDS011;47007;49.252;8.904;2022-10-30T03:13:38;6.95;;;4.47;;
10637;SDS011;47007;49.252;8.904;2022-10-30T03:16:18;6.80;;;4.22;;
10637;SDS011;47007;49.252;8.904;2022-10-30T03:18:48;8.05;;;4.75;;
10637;SDS011;47007;49.252;8.904;2022-10-30T03:21:16;5.72;;;4.30;;
10637;SDS011;47007;49.252;8.904;2022-10-30T03:23:44;8.57;;;5.32;;
10637;SDS011;47007;49.252;8.904;2022-10-30T03:26:11;4.72;;;4.28;;
10637;SDS011;47007;49.252;8.904;2022-10-30T03:28:47;8.23;;;5.10;;
10637;SDS011;47007;49.252;8.904;2022-10-30T03:31:14;8.43;;;5.72;;
10637;SDS011;47007;49.252;8.904;2022-10-30T03:33:43;5.95;;;4.60;;
10637;SDS011;47007;49.252;8.904;2022-10-30T03:36:11;5.25;;;4.45;;
10637;SDS011;47007;49.252;8.904;2022-10-30T03:38:39;6.75;;;4.47;;
10637;SDS011;47007;49.252;8.904;2022-10-30T03:41:07;4.90;;;4.43;;
10637;SDS011;47007;49.252;8.904;2022-10-30T03:43:35;8.85;;;4.80;;
10637;SDS011;47007;49.252;8.904;2022-10-30T03:46:02;9.15;;;4.70;;
10637;SDS011;47007;49.252;8.904;2022-10-30T03:48:29;7.82;;;4.50;;
10637;SDS011;47007;49.252;8.904;2022-10-30T03:50:57;6.20;;;4.80;;
10637;SDS011;47007;49.252;8.904;2022-10-30T03:53:25;7.38;;;4.82;;
10637;SDS011;47007;49.252;8.904;2022-10-30T03:55:57;6.00;;;5.13;;
10637;SDS011;47007;49.252;8.904;2022-10-30T03:58:30;6.90;;;5.05;;
10637;SDS011;47007;49.252;8.904;2022-10-30T04:01:02;11.93;;;8.98;;
10637;SDS011;47007;49.252;8.904;2022-10-30T04:03:34;9.73;;;6.43;;
10637;SDS011;47007;49.252;8.904;2022-10-30T04:06:01;8.15;;;5.40;;
10637;SDS011;47007;49.252;8.904;2022-10-30T04:08:28;9.43;;;6.13;;
10637;SDS011;47007;49.252;8.904;2022-10-30T04:10:56;9.57;;;5.90;;
10637;SDS011;47007;49.252;8.904;2022-10-30T04:13:23;6.82;;;5.15;;
10637;SDS011;47007;49.252;8.904;2022-10-30T04:15:51;7.25;;;5.35;;
10637;SDS011;47007;49.252;8.904;2022-10-30T04:18:23;6.53;;;5.93;;
10637;SDS011;47007;49.252;8.904;2022-10-30T04:20:54;6.78;;;5.78;;
10637;SDS011;47007;49.252;8.904;2022-10-30T04:23:24;8.25;;;5.75;;
10637;SDS011;47007;49.252;8.904;2022-10-30T04:25:52;7.68;;;5.57;;
10637;SDS011;47007;49.252;8.904;2022-10-30T04:28:18;5.43;;;4.68;;
10637;SDS011;47007;49.252;8.904;2022-10-30T04:30:46;6.65;;;5.50;;
10637;SDS011;47007;49.252;8.904;2022-10-30T04:33:15;10.27;;;6.47;;
10637;SDS011;47007;49.252;8.904;2022-10-30T04:35:42;7.18;;;6.13;;
10637;SDS011;47007;49.252;8.904;2022-10-30T04:38:13;6.85;;;5.35;;
10637;SDS011;47007;49.252;8.904;2022-10-30T04:40:42;5.47;;;4.35;;
10637;SDS011;47007;49.252;8.904;2022-10-30T04:43:11;5.07;;;4.57;;
10637;SDS011;47007;49.252;8.904;2022-10-30T04:45:39;8.90;;;5.00;;
10637;SDS011;47007;49.252;8.904;2022-10-30T04:48:13;5.47;;;4.25;;
10637;SDS011;47007;49.252;8.904;2022-10-30T04:50:42;4.97;;;4.38;;
10637;SDS011;47007;49.252;8.904;2022-10-30T04:53:14;5.07;;;4.60;;
10637;SDS011;47007;49.252;8.904;2022-10-30T04:55:44;7.65;;;5.57;;
10637;SDS011;47007;49.252;8.904;2022-10-30T04:58:12;9.73;;;5.88;;
10637;SDS011;47007;49.252;8.904;2022-10-30T05:00:41;6.70;;;4.90;;
10637;SDS011;47007;49.252;8.904;2022-10-30T05:03:17;7.00;;;5.28;;
10637;SDS011;47007;49.252;8.904;2022-10-30T05:05:46;7.75;;;5.40;;
10637;SDS011;47007;49.252;8.904;2022-10-30T05:08:21;7.55;;;4.68;;
10637;SDS011;47007;49.252;8.904;2022-10-30T05:10:48;9.05;;;5.40;;
10637;SDS011;47007;49.252;8.904;2022-10-30T05:13:14;7.65;;;5.38;;
10637;SDS011;47007;49.252;8.904;2022-10-30T05:15:41;5.72;;;4.85;;
10637;SDS011;47007;49.252;8.904;2022-10-30T05:18:08;7.75;;;5.28;;
10637;SDS011;47007;49.252;8.904;2022-10-30T05:20:35;8.13;;;6.00;;
10637;SDS011;47007;49.252;8.904;2022-10-30T05:23:02;7.57;;;5.28;;
10637;SDS011;47007;49.252;8.904;2022-10-30T05:25:29;6.93;;;5.40;;
10637;SDS011;47007;49.252;8.904;2022-10-30T05:28:02;6.22;;;5.20;;
10637;SDS011;47007;49.252;8.904;2022-10-30T05:30:38;7.70;;;5.13;;
10637;SDS011;47007;49.252;8.904;2022-10-30T05:33:12;7.28;;;5.88;;
10637;SDS011;47007;49.252;8.904;2022-10-30T05:35:41;5.65;;;5.05;;
10637;SDS011;47007;49.252;8.904;2022-10-30T05:38:09;6.07;;;4.80;;
10637;SDS011;47007;49.252;8.904;2022-10-30T05:40:36;5.57;;;4.95;;
10637;SDS011;47007;49.252;8.904;2022-10-30T05:43:03;6.32;;;5.28;;
10637;SDS011;47007;49.252;8.904;2022-10-30T05:45:31;8.30;;;5.40;;
10637;SDS011;47007;49.252;8.904;2022-10-30T05:47:59;6.53;;;5.88;;
10637;SDS011;47007;49.252;8.904;2022-10-30T05:50:37;7.38;;;5.40;;
10637;SDS011;47007;49.252;8.904;2022-10-30T05:53:18;5.15;;;4.43;;
10637;SDS011;47007;49.252;8.904;2022-10-30T05:55:44;5.55;;;4.90;;
10637;SDS011;47007;49.252;8.904;2022-10-30T05:58:17;6.03;;;5.40;;
10637;SDS011;47007;49.252;8.904;2022-10-30T06:00:44;5.88;;;5.18;;
10637;SDS011;47007;49.252;8.904;2022-10-30T06:03:16;5.35;;;4.85;;
10637;SDS011;47007;49.252;8.904;2022-10-30T06:05:44;5.70;;;5.05;;
10637;SDS011;47007;49.252;8.904;2022-10-30T06:08:12;4.65;;;4.25;;
10637;SDS011;47007;49.252;8.904;2022-10-30T06:10:42;5.93;;;5.00;;
10637;SDS011;47007;49.252;8.904;2022-10-30T06:13:15;6.80;;;4.82;;
10637;SDS011;47007;49.252;8.904;2022-10-30T06:15:50;5.38;;;4.88;;
10637;SDS011;47007;49.252;8.904;2022-10-30T06:18:20;5.82;;;4.28;;
10637;SDS011;47007;49.252;8.904;2022-10-30T06:20:53;4.28;;;3.85;;
10637;SDS011;47007;49.252;8.904;2022-10-30T06:23:29;3.80;;;3.58;;
10637;SDS011;47007;49.252;8.904;2022-10-30T06:26:06;4.90;;;4.50;;
10637;SDS011;47007;49.252;8.904;2022-10-30T06:28:38;4.28;;;3.60;;
10637;SDS011;47007;49.252;8.904;2022-10-30T06:31:05;7.05;;;3.90;;
10637;SDS011;47007;49.252;8.904;2022-10-30T06:33:36;5.30;;;4.30;;
10637;SDS011;47007;49.252;8.904;2022-10-30T06:36:03;5.93;;;4.20;;
10637;SDS011;47007;49.252;8.904;2022-10-30T06:38:31;5.63;;;5.10;;
10637;SDS011;47007;49.252;8.904;2022-10-30T06:40:58;4.50;;;4.10;;
10637;SDS011;47007;49.252;8.904;2022-10-30T06:43:36;4.43;;;4.13;;
10637;SDS011;47007;49.252;8.904;2022-10-30T06:46:08;9.82;;;8.82;;
10637;SDS011;47007;49.252;8.904;2022-10-30T06:48:38;9.15;;;8.32;;
10637;SDS011;47007;49.252;8.904;2022-10-30T06:51:05;6.70;;;6.10;;
10637;SDS011;47007;49.252;8.904;2022-10-30T06:53:35;7.55;;;6.70;;
10637;SDS011;47007;49.252;8.904;2022-10-30T06:56:22;6.22;;;5.63;;
10637;SDS011;47007;49.252;8.904;2022-10-30T06:59:07;6.60;;;5.93;;
10637;SDS011;47007;49.252;8.904;2022-10-30T07:01:43;6.85;;;5.57;;
10637;SDS011;47007;49.252;8.904;2022-10-30T07:04:15;6.88;;;5.57;;
10637;SDS011;47007;49.252;8.904;2022-10-30T07:06:43;6.35;;;4.63;;
10637;SDS011;47007;49.252;8.904;2022-10-30T07:09:09;6.57;;;5.50;;
10637;SDS011;47007;49.252;8.904;2022-10-30T07:11:36;6.45;;;5.18;;
10637;SDS011;47007;49.252;8.904;2022-10-30T07:14:27;7.45;;;5.47;;
10637;SDS011;47007;49.252;8.904;2022-10-30T07:17:11;5.80;;;4.75;;
10637;SDS011;47007;49.252;8.904;2022-10-30T07:19:40;5.13;;;4.63;;
10637;SDS011;47007;49.252;8.904;2022-10-30T07:22:07;5.97;;;5.03;;
10637;SDS011;47007;49.252;8.904;2022-10-30T07:24:36;5.53;;;5.03;;
10637;SDS011;47007;49.252;8.904;2022-10-30T07:27:15;5.75;;;4.80;;
10637;SDS011;47007;49.252;8.904;2022-10-30T07:30:02;5.63;;;4.68;;
10637;SDS011;47007;49.252;8.904;2022-10-30T07:32:39;5.45;;;4.82;;
10637;SDS011;47007;49.252;8.904;2022-10-30T07:35:13;5.82;;;4.88;;
10637;SDS011;47007;49.252;8.904;2022-10-30T07:38:02;5.25;;;4.75;;
10637;SDS011;47007;49.252;8.904;2022-10-30T07:40:42;5.40;;;4.90;;
10637;SDS011;47007;49.252;8.904;2022-10-30T07:43:28;5.45;;;4.25;;
10637;SDS011;47007;49.252;8.904;2022-10-30T07:46:21;6.35;;;4.25;;
10637;SDS011;47007;49.252;8.904;2022-10-30T07:49:13;5.53;;;4.28;;
10637;SDS011;47007;49.252;8.904;2022-10-30T07:51:46;6.65;;;4.43;;
10637;SDS011;47007;49.252;8.904;2022-10-30T07:54:14;5.13;;;4.63;;
10637;SDS011;47007;49.252;8.904;2022-10-30T07:56:41;5.50;;;4.88;;
10637;SDS011;47007;49.252;8.904;2022-10-30T07:59:26;6.05;;;4.57;;
10637;SDS011;47007;49.252;8.904;2022-10-30T08:01:56;6.60;;;4.78;;
10637;SDS011;47007;49.252;8.904;2022-10-30T08:04:44;4.82;;;4.32;;
10637;SDS011;47007;49.252;8.904;2022-10-30T08:07:31;5.13;;;4.45;;
10637;SDS011;47007;49.252;8.904;2022-10-30T08:09:59;5.28;;;4.20;;
10637;SDS011;47007;49.252;8.904;2022-10-30T08:12:26;4.82;;;4.47;;
10637;SDS011;47007;49.252;8.904;2022-10-30T08:14:54;5.80;;;5.30;;
10637;SDS011;47007;49.252;8.904;2022-10-30T08:17:20;19.05;;;17.00;;
10637;SDS011;47007;49.252;8.904;2022-10-30T08:19:48;38.10;;;33.80;;
10637;SDS011;47007;49.252;8.904;2022-10-30T08:22:16;49.97;;;44.03;;
10637;SDS011;47007;49.252;8.904;2022-10-30T08:24:47;55.47;;;49.47;;
10637;SDS011;47007;49.252;8.904;2022-10-30T08:27:14;40.78;;;35.55;;
10637;SDS011;47007;49.252;8.904;2022-10-30T08:29:41;34.38;;;30.70;;
10637;SDS011;47007;49.252;8.904;2022-10-30T08:32:08;25.73;;;22.80;;
10637;SDS011;47007;49.252;8.904;2022-10-30T08:34:53;29.17;;;25.05;;
10637;SDS011;47007;49.252;8.904;2022-10-30T08:37:20;29.80;;;26.60;;
10637;SDS011;47007;49.252;8.904;2022-10-30T08:39:47;12.18;;;10.90;;
10637;SDS011;47007;49.252;8.904;2022-10-30T08:42:48;15.13;;;11.48;;
10637;SDS011;47007;49.252;8.904;2022-10-30T08:45:16;20.40;;;18.30;;
10637;SDS011;47007;49.252;8.904;2022-10-30T08:47:55;15.32;;;13.20;;
10637;SDS011;47007;49.252;8.904;2022-10-30T08:50:26;11.98;;;10.68;;
10637;SDS011;47007;49.252;8.904;2022-10-30T08:52:53;15.48;;;13.50;;
10637;SDS011;47007;49.252;8.904;2022-10-30T08:55:20;11.00;;;9.80;;
10637;SDS011;47007;49.252;8.904;2022-10-30T08:57:47;10.15;;;9.13;;
10637;SDS011;47007;49.252;8.904;2022-10-30T09:00:14;10.13;;;8.30;;
10637;SDS011;47007;49.252;8.904;2022-10-30T09:03:00;9.57;;;7.68;;
10637;SDS011;47007;49.252;8.904;2022-10-30T09:05:31;8.32;;;7.32;;
10637;SDS011;47007;49.252;8.904;2022-10-30T09:08:15;11.40;;;7.13;;
10637;SDS011;47007;49.252;8.904;2022-10-30T09:11:05;9.20;;;7.43;;
10637;SDS011;47007;49.252;8.904;2022-10-30T09:13:32;7.85;;;7.05;;
10637;SDS011;47007;49.252;8.904;2022-10-30T09:16:01;7.22;;;6.28;;
10637;SDS011;47007;49.252;8.904;2022-10-30T09:18:31;7.90;;;6.30;;
10637;SDS011;47007;49.252;8.904;2022-10-30T09:20:58;8.50;;;6.75;;
10637;SDS011;47007;49.252;8.904;2022-10-30T09:23:32;7.82;;;6.35;;
10637;SDS011;47007;49.252;8.904;2022-10-30T09:26:22;8.98;;;6.75;;
10637;SDS011;47007;49.252;8.904;2022-10-30T09:28:54;8.05;;;6.60;;
10637;SDS011;47007;49.252;8.904;2022-10-30T09:31:39;8.57;;;6.38;;
10637;SDS011;47007;49.252;8.904;2022-10-30T09:34:12;8.20;;;6.40;;
10637;SDS011;47007;49.252;8.904;2022-10-30T09:36:41;7.30;;;6.50;;
10637;SDS011;47007;49.252;8.904;2022-10-30T09:39:11;7.80;;;7.00;;
10637;SDS011;47007;49.252;8.904;2022-10-30T09:55:28;8.65;;;6.85;;
10637;SDS011;47007;49.252;8.904;2022-10-30T10:00:51;7.55;;;5.75;;
10637;SDS011;47007;49.252;8.904;2022-10-30T10:03:37;7.32;;;5.50;;
10637;SDS011;47007;49.252;8.904;2022-10-30T10:06:42;6.88;;;5.40;;
10637;SDS011;47007;49.252;8.904;2022-10-30T10:09:32;6.80;;;5.07;;
10637;SDS011;47007;49.252;8.904;2022-10-30T10:12:50;8.70;;;4.82;;
10637;SDS011;47007;49.252;8.904;2022-10-30T10:18:06;5.95;;;4.13;;
10637;SDS011;47007;49.252;8.904;2022-10-30T10:20:42;8.18;;;5.38;;
10637;SDS011;47007;49.252;8.904;2022-10-30T10:23:46;13.20;;;6.53;;
10637;SDS011;47007;49.252;8.904;2022-10-30T10:26:22;9.48;;;4.88;;
10637;SDS011;47007;49.252;8.904;2022-10-30T10:31:30;7.43;;;4.63;;
10637;SDS011;47007;49.252;8.904;2022-10-30T10:34:08;6.72;;;4.32;;
10637;SDS011;47007;49.252;8.904;2022-10-30T10:45:08;5.97;;;4.22;;
10637;SDS011;47007;49.252;8.904;2022-10-30T10:50:32;7.13;;;4.25;;
10637;SDS011;47007;49.252;8.904;2022-10-30T10:55:58;8.52;;;5.22;;
10637;SDS011;47007;49.252;8.904;2022-10-30T11:01:18;10.40;;;3.92;;
10637;SDS011;47007;49.252;8.904;2022-10-30T11:03:52;5.72;;;3.70;;
10637;SDS011;47007;49.252;8.904;2022-10-30T11:06:21;7.18;;;4.15;;
10637;SDS011;47007;49.252;8.904;2022-10-30T11:08:53;5.88;;;3.38;;
10637;SDS011;47007;49.252;8.904;2022-10-30T11:11:27;6.53;;;3.95;;
10637;SDS011;47007;49.252;8.904;2022-10-30T11:13:54;5.95;;;3.20;;
10637;SDS011;47007;49.252;8.904;2022-10-30T11:18:52;8.75;;;3.95;;
10637;SDS011;47007;49.252;8.904;2022-10-30T11:21:24;7.07;;;3.65;;
10637;SDS011;47007;49.252;8.904;2022-10-30T11:23:52;5.55;;;3.25;;
10637;SDS011;47007;49.252;8.904;2022-10-30T11:28:49;9.13;;;4.68;;
10637;SDS011;47007;49.252;8.904;2022-10-30T11:34:45;8.98;;;3.88;;
10637;SDS011;47007;49.252;8.904;2022-10-30T11:37:07;7.10;;;3.88;;
10637;SDS011;47007;49.252;8.904;2022-10-30T11:40:00;9.55;;;3.58;;
10637;SDS011;47007;49.252;8.904;2022-10-30T11:42:29;8.15;;;4.53;;
10637;SDS011;47007;49.252;8.904;2022-10-30T11:44:56;6.70;;;3.70;;
10637;SDS011;47007;49.252;8.904;2022-10-30T11:47:29;5.38;;;3.15;;
10637;SDS011;47007;49.252;8.904;2022-10-30T11:50:01;7.82;;;3.33;;
10637;SDS011;47007;49.252;8.904;2022-10-30T11:52:34;6.45;;;3.40;;
10637;SDS011;47007;49.252;8.904;2022-10-30T11:55:26;4.95;;;3.30;;
10637;SDS011;47007;49.252;8.904;2022-10-30T11:57:57;8.85;;;4.13;;
10637;SDS011;47007;49.252;8.904;2022-10-30T12:00:25;7.38;;;3.65;;
10637;SDS011;47007;49.252;8.904;2022-10-30T12:02:57;6.50;;;3.60;;
10637;SDS011;47007;49.252;8.904;2022-10-30T12:10:37;6.03;;;3.25;;
10637;SDS011;47007;49.252;8.904;2022-10-30T12:13:30;4.13;;;2.67;;
10637;SDS011;47007;49.252;8.904;2022-10-30T12:18:48;6.50;;;2.83;;
10637;SDS011;47007;49.252;8.904;2022-10-30T12:21:24;4.53;;;2.97;;
10637;SDS011;47007;49.252;8.904;2022-10-30T12:23:53;6.35;;;3.55;;
10637;SDS011;47007;49.252;8.904;2022-10-30T12:26:22;6.97;;;3.22;;
10637;SDS011;47007;49.252;8.904;2022-10-30T12:28:56;5.07;;;3.10;;
10637;SDS011;47007;49.252;8.904;2022-10-30T12:31:31;4.45;;;3.10;;
10637;SDS011;47007;49.252;8.904;2022-10-30T12:36:36;5.90;;;3.25;;
10637;SDS011;47007;49.252;8.904;2022-10-30T12:45:05;6.18;;;3.60;;
10637;SDS011;47007;49.252;8.904;2022-10-30T12:47:42;6.95;;;3.15;;
10637;SDS011;47007;49.252;8.904;2022-10-30T12:52:50;4.97;;;2.92;;
10637;SDS011;47007;49.252;8.904;2022-10-30T12:55:29;7.18;;;3.20;;
10637;SDS011;47007;49.252;8.904;2022-10-30T13:03:38;7.40;;;3.63;;
10637;SDS011;47007;49.252;8.904;2022-10-30T13:06:15;5.05;;;3.10;;
10637;SDS011;47007;49.252;8.904;2022-10-30T13:11:54;7.00;;;2.28;;
10637;SDS011;47007;49.252;8.904;2022-10-30T13:14:37;7.57;;;3.08;;
10637;SDS011;47007;49.252;8.904;2022-10-30T13:17:09;5.50;;;2.63;;
10637;SDS011;47007;49.252;8.904;2022-10-30T13:19:41;3.70;;;2.50;;
10637;SDS011;47007;49.252;8.904;2022-10-30T13:35:23;4.93;;;2.45;;
10637;SDS011;47007;49.252;8.904;2022-10-30T13:40:55;4.30;;;2.25;;
10637;SDS011;47007;49.252;8.904;2022-10-30T13:43:41;4.70;;;2.60;;
10637;SDS011;47007;49.252;8.904;2022-10-30T13:51:54;5.05;;;2.38;;
10637;SDS011;47007;49.252;8.904;2022-10-30T14:00:11;5.63;;;2.72;;
10637;SDS011;47007;49.252;8.904;2022-10-30T14:08:31;4.95;;;2.20;;
10637;SDS011;47007;49.252;8.904;2022-10-30T14:11:06;3.40;;;2.05;;
10637;SDS011;47007;49.252;8.904;2022-10-30T14:13:44;2.90;;;2.10;;
10637;SDS011;47007;49.252;8.904;2022-10-30T14:16:33;3.97;;;1.95;;
10637;SDS011;47007;49.252;8.904;2022-10-30T14:19:12;4.55;;;2.35;;
10637;SDS011;47007;49.252;8.904;2022-10-30T14:21:41;5.40;;;2.25;;
10637;SDS011;47007;49.252;8.904;2022-10-30T14:34:41;4.70;;;2.72;;
10637;SDS011;47007;49.252;8.904;2022-10-30T14:37:53;4.50;;;2.30;;
10637;SDS011;47007;49.252;8.904;2022-10-30T14:46:00;3.58;;;2.10;;
10637;SDS011;47007;49.252;8.904;2022-10-30T14:48:47;5.20;;;2.30;;
10637;SDS011;47007;49.252;8.904;2022-10-30T14:51:18;4.50;;;2.20;;
10637;SDS011;47007;49.252;8.904;2022-10-30T14:53:53;4.97;;;2.30;;
10637;SDS011;47007;49.252;8.904;2022-10-30T14:56:38;5.13;;;2.45;;
10637;SDS011;47007;49.252;8.904;2022-10-30T15:04:24;5.88;;;2.92;;
10637;SDS011;47007;49.252;8.904;2022-10-30T15:12:48;6.35;;;3.40;;
10637;SDS011;47007;49.252;8.904;2022-10-30T15:15:44;7.18;;;2.88;;
10637;SDS011;47007;49.252;8.904;2022-10-30T15:18:16;3.75;;;2.38;;
10637;SDS011;47007;49.252;8.904;2022-10-30T15:20:51;5.70;;;3.60;;
10637;SDS011;47007;49.252;8.904;2022-10-30T15:25:48;3.63;;;3.00;;
10637;SDS011;47007;49.252;8.904;2022-10-30T15:28:18;3.35;;;2.50;;
10637;SDS011;47007;49.252;8.904;2022-10-30T15:33:51;6.35;;;2.78;;
10637;SDS011;47007;49.252;8.904;2022-10-30T15:41:39;5.68;;;3.72;;
10637;SDS011;47007;49.252;8.904;2022-10-30T15:44:10;9.68;;;3.95;;
10637;SDS011;47007;49.252;8.904;2022-10-30T15:46:42;7.45;;;4.28;;
10637;SDS011;47007;49.252;8.904;2022-10-30T15:49:12;5.13;;;3.60;;
10637;SDS011;47007;49.252;8.904;2022-10-30T15:51:44;8.27;;;3.95;;
10637;SDS011;47007;49.252;8.904;2022-10-30T15:54:14;7.63;;;3.72;;
10637;SDS011;47007;49.252;8.904;2022-10-30T15:56:47;6.70;;;3.75;;
10637;SDS011;47007;49.252;8.904;2022-10-30T15:59:35;7.97;;;4.20;;
10637;SDS011;47007;49.252;8.904;2022-10-30T16:02:15;5.25;;;3.80;;
10637;SDS011;47007;49.252;8.904;2022-10-30T16:04:46;7.38;;;4.88;;
10637;SDS011;47007;49.252;8.904;2022-10-30T16:07:18;9.40;;;4.93;;
10637;SDS011;47007;49.252;8.904;2022-10-30T16:09:50;6.53;;;4.80;;
10637;SDS011;47007;49.252;8.904;2022-10-30T16:12:31;8.73;;;6.03;;
10637;SDS011;47007;49.252;8.904;2022-10-30T16:15:01;7.28;;;5.00;;
10637;SDS011;47007;49.252;8.904;2022-10-30T16:17:33;5.60;;;4.40;;
10637;SDS011;47007;49.252;8.904;2022-10-30T16:20:00;10.32;;;4.68;;
10637;SDS011;47007;49.252;8.904;2022-10-30T16:22:33;8.07;;;4.63;;
10637;SDS011;47007;49.252;8.904;2022-10-30T16:25:05;7.78;;;4.57;;
10637;SDS011;47007;49.252;8.904;2022-10-30T16:27:33;6.78;;;5.00;;
10637;SDS011;47007;49.252;8.904;2022-10-30T16:29:59;10.35;;;6.88;;
10637;SDS011;47007;49.252;8.904;2022-10-30T16:32:28;10.85;;;5.53;;
10637;SDS011;47007;49.252;8.904;2022-10-30T16:34:56;6.68;;;4.30;;
10637;SDS011;47007;49.252;8.904;2022-10-30T16:37:34;6.95;;;4.60;;
10637;SDS011;47007;49.252;8.904;2022-10-30T16:42:49;7.38;;;5.18;;
10637;SDS011;47007;49.252;8.904;2022-10-30T16:47:50;8.98;;;5.97;;
10637;SDS011;47007;49.252;8.904;2022-10-30T16:50:26;8.07;;;5.88;;
10637;SDS011;47007;49.252;8.904;2022-10-30T16:53:14;8.02;;;5.72;;
10637;SDS011;47007;49.252;8.904;2022-10-30T16:55:46;10.57;;;4.97;;
10637;SDS011;47007;49.252;8.904;2022-10-30T16:58:13;7.35;;;5.82;;
10637;SDS011;47007;49.252;8.904;2022-10-30T17:00:47;9.60;;;6.68;;
10637;SDS011;47007;49.252;8.904;2022-10-30T17:03:17;8.48;;;6.03;;
10637;SDS011;47007;49.252;8.904;2022-10-30T17:05:55;15.05;;;13.50;;
10637;SDS011;47007;49.252;8.904;2022-10-30T17:08:34;13.02;;;10.90;;
10637;SDS011;47007;49.252;8.904;2022-10-30T17:11:05;14.20;;;8.82;;
10637;SDS011;47007;49.252;8.904;2022-10-30T17:18:51;11.85;;;9.00;;
10637;SDS011;47007;49.252;8.904;2022-10-30T17:21:21;31.35;;;26.42;;
10637;SDS011;47007;49.252;8.904;2022-10-30T17:23:50;12.73;;;10.60;;
10637;SDS011;47007;49.252;8.904;2022-10-30T17:26:19;19.25;;;15.40;;
10637;SDS011;47007;49.252;8.904;2022-10-30T17:28:46;11.88;;;8.93;;
10637;SDS011;47007;49.252;8.904;2022-10-30T17:33:47;8.32;;;7.05;;
10637;SDS011;47007;49.252;8.904;2022-10-30T17:36:29;10.82;;;6.90;;
10637;SDS011;47007;49.252;8.904;2022-10-30T17:38:56;8.40;;;6.28;;
10637;SDS011;47007;49.252;8.904;2022-10-30T17:41:23;7.10;;;4.93;;
10637;SDS011;47007;49.252;8.904;2022-10-30T17:43:50;7.70;;;4.75;;
10637;SDS011;47007;49.252;8.904;2022-10-30T17:46:18;9.13;;;4.45;;
10637;SDS011;47007;49.252;8.904;2022-10-30T17:48:46;7.50;;;4.15;;
10637;SDS011;47007;49.252;8.904;2022-10-30T17:51:13;8.20;;;5.15;;
10637;SDS011;47007;49.252;8.904;2022-10-30T17:53:42;5.95;;;4.35;;
10637;SDS011;47007;49.252;8.904;2022-10-30T17:58:44;6.70;;;4.45;;
10637;SDS011;47007;49.252;8.904;2022-10-30T18:01:21;6.90;;;4.68;;
10637;SDS011;47007;49.252;8.904;2022-10-30T18:03:51;9.98;;;5.13;;
10637;SDS011;47007;49.252;8.904;2022-10-30T18:06:21;9.38;;;5.97;;
10637;SDS011;47007;49.252;8.904;2022-10-30T18:08:52;8.32;;;5.75;;
10637;SDS011;47007;49.252;8.904;2022-10-30T18:11:21;8.70;;;7.05;;
10637;SDS011;47007;49.252;8.904;2022-10-30T18:13:50;8.77;;;7.22;;
10637;SDS011;47007;49.252;8.904;2022-10-30T18:16:18;9.85;;;7.20;;
10637;SDS011;47007;49.252;8.904;2022-10-30T18:18:46;12.75;;;8.27;;